Time,TemperatureF,DewpointF,PressureIn,WindDirection,WindDirectionDegrees,WindSpeedMPH,WindSpeedGustMPH,Humidity,HourlyPrecipIn,Conditions,Clouds,dailyrainin,SoftwareType,DateUTC
2013-02-16 00:04:00,44.1,38.7,30.14,ESE,112,1.1,3.1,81,0.00,,,0.00,WUHU21623XXSP,2013-02-16 08:04:00,
2013-02-16 00:09:00,44.1,38.7,30.14,ESE,112,0.0,3.1,81,0.00,,,0.00,WUHU21623XXSP,2013-02-16 08:09:00,
2013-02-16 00:14:00,44.1,38.7,30.14,ESE,112,0.0,1.8,81,0.00,,,0.00,WUHU21623XXSP,2013-02-16 08:14:00,
2013-02-16 00:19:00,44.1,38.7,30.14,ESE,112,0.0,0.0,81,0.00,,,0.00,WUHU21623XXSP,2013-02-16 08:19:00,
2013-02-16 00:24:00,44.1,38.7,30.14,ESE,112,1.3,3.1,81,0.00,,,0.00,WUHU21623XXSP,2013-02-16 08:24:00,
2013-02-16 00:29:00,44.1,38.7,30.14,ESE,112,3.1,3.1,81,0.00,,,0.00,WUHU21623XXSP,2013-02-16 08:29:00,
2013-02-16 00:35:00,44.1,38.7,30.14,ESE,112,0.2,3.1,81,0.00,,,0.00,WUHU21623XXSP,2013-02-16 08:35:00,
2013-02-16 00:40:00,44.1,38.7,30.14,ESE,112,0.0,1.3,81,0.00,,,0.00,WUHU21623XXSP,2013-02-16 08:40:00,
2013-02-16 00:45:00,44.1,38.7,30.14,ESE,112,2.9,2.9,81,0.00,,,0.00,WUHU21623XXSP,2013-02-16 08:45:00,
2013-02-16 00:50:00,44.1,38.7,30.14,ESE,112,0.0,2.9,81,0.00,,,0.00,WUHU21623XXSP,2013-02-16 08:50:00,
2013-02-16 00:55:00,44.1,38.7,30.13,SE,135,1.8,2.9,81,0.00,,,0.00,WUHU21623XXSP,2013-02-16 08:55:00,
2013-02-16 01:00:00,44.1,38.7,30.14,ESE,112,1.3,1.8,81,0.00,,,0.00,WUHU21623XXSP,2013-02-16 09:00:00,
2013-02-16 01:05:00,44.1,38.3,30.14,ESE,112,1.1,3.6,80,0.00,,,0.00,WUHU21623XXSP,2013-02-16 09:05:00,
2013-02-16 01:10:00,44.1,38.3,30.14,ESE,112,0.0,3.6,80,0.00,,,0.00,WUHU21623XXSP,2013-02-16 09:10:00,
2013-02-16 01:15:00,43.7,38.0,30.14,ESE,112,0.0,0.0,80,0.00,,,0.00,WUHU21623XXSP,2013-02-16 09:15:00,
2013-02-16 01:20:00,43.5,37.8,30.14,ESE,112,0.0,0.0,80,0.00,,,0.00,WUHU21623XXSP,2013-02-16 09:20:00,
2013-02-16 01:25:00,43.5,37.8,30.14,ESE,112,0.0,0.0,80,0.00,,,0.00,WUHU21623XXSP,2013-02-16 09:25:00,
2013-02-16 01:30:00,43.2,37.8,30.14,ESE,112,0.0,0.0,81,0.00,,,0.00,WUHU21623XXSP,2013-02-16 09:30:00,
2013-02-16 01:35:00,43.0,37.6,30.14,ESE,112,0.0,0.0,81,0.00,,,0.00,WUHU21623XXSP,2013-02-16 09:35:00,
2013-02-16 01:40:00,42.6,37.2,30.14,ESE,112,0.0,0.0,81,0.00,,,0.00,WUHU21623XXSP,2013-02-16 09:40:00,
2013-02-16 01:45:00,42.5,37.1,30.14,ESE,112,0.0,0.0,81,0.00,,,0.00,WUHU21623XXSP,2013-02-16 09:45:00,
2013-02-16 01:50:00,42.5,37.1,30.14,ESE,112,0.0,0.0,81,0.00,,,0.00,WUHU21623XXSP,2013-02-16 09:50:00,
2013-02-16 01:55:00,42.3,36.9,30.14,ESE,112,0.0,0.0,81,0.00,,,0.00,WUHU21623XXSP,2013-02-16 09:55:00,
2013-02-16 02:00:00,42.1,36.7,30.14,ESE,112,0.0,0.0,81,0.00,,,0.00,WUHU21623XXSP,2013-02-16 10:00:00,
2013-02-16 02:05:00,41.9,36.5,30.14,ESE,112,0.0,0.0,81,0.00,,,0.00,WUHU21623XXSP,2013-02-16 10:05:00,
2013-02-16 02:10:00,41.9,36.5,30.14,ESE,112,0.0,0.0,81,0.00,,,0.00,WUHU21623XXSP,2013-02-16 10:10:00,
2013-02-16 02:15:00,41.9,36.5,30.14,ESE,112,0.0,0.0,81,0.00,,,0.00,WUHU21623XXSP,2013-02-16 10:15:00,
2013-02-16 02:20:00,41.9,36.8,30.14,ESE,112,0.0,0.0,82,0.00,,,0.00,WUHU21623XXSP,2013-02-16 10:20:00,
2013-02-16 02:25:00,41.7,36.6,30.14,ESE,112,0.0,0.0,82,0.00,,,0.00,WUHU21623XXSP,2013-02-16 10:25:00,
2013-02-16 02:30:00,41.9,36.8,30.14,ESE,112,0.0,0.0,82,0.00,,,0.00,WUHU21623XXSP,2013-02-16 10:30:00,
2013-02-16 02:35:00,41.9,36.8,30.14,ESE,112,0.0,1.1,82,0.00,,,0.00,WUHU21623XXSP,2013-02-16 10:35:00,
2013-02-16 02:40:00,41.7,36.6,30.14,East,90,1.8,1.8,82,0.00,,,0.00,WUHU21623XXSP,2013-02-16 10:40:00,
2013-02-16 02:46:00,41.7,36.3,30.13,ESE,112,0.0,1.8,81,0.00,,,0.00,WUHU21623XXSP,2013-02-16 10:46:00,
2013-02-16 02:51:00,41.6,36.2,30.14,ESE,112,0.0,0.0,81,0.00,,,0.00,WUHU21623XXSP,2013-02-16 10:51:00,
2013-02-16 02:56:00,41.6,36.5,30.13,ESE,112,0.0,0.0,82,0.00,,,0.00,WUHU21623XXSP,2013-02-16 10:56:00,
2013-02-16 03:01:00,41.4,36.0,30.13,ESE,112,0.0,0.0,81,0.00,,,0.00,WUHU21623XXSP,2013-02-16 11:01:00,
2013-02-16 03:06:00,41.2,36.1,30.13,ESE,112,0.0,0.0,82,0.00,,,0.00,WUHU21623XXSP,2013-02-16 11:06:00,
2013-02-16 03:11:00,41.2,36.1,30.13,ESE,112,0.0,0.0,82,0.00,,,0.00,WUHU21623XXSP,2013-02-16 11:11:00,
2013-02-16 03:16:00,41.2,36.1,30.13,ESE,112,0.0,0.0,82,0.00,,,0.00,WUHU21623XXSP,2013-02-16 11:16:00,
2013-02-16 03:21:00,41.0,35.9,30.13,ESE,112,1.6,1.6,82,0.00,,,0.00,WUHU21623XXSP,2013-02-16 11:21:00,
2013-02-16 03:26:00,41.0,35.9,30.13,ESE,112,0.0,1.6,82,0.00,,,0.00,WUHU21623XXSP,2013-02-16 11:26:00,
2013-02-16 03:31:00,40.8,35.7,30.12,ESE,112,0.0,1.6,82,0.00,,,0.00,WUHU21623XXSP,2013-02-16 11:31:00,
2013-02-16 03:36:00,40.8,35.7,30.12,ESE,112,0.0,0.0,82,0.00,,,0.00,WUHU21623XXSP,2013-02-16 11:36:00,
2013-02-16 03:41:00,40.7,35.6,30.12,ESE,112,2.2,2.2,82,0.00,,,0.00,WUHU21623XXSP,2013-02-16 11:41:00,
2013-02-16 03:46:00,40.5,35.4,30.12,ESE,112,0.0,2.2,82,0.00,,,0.00,WUHU21623XXSP,2013-02-16 11:46:00,
2013-02-16 03:51:00,40.5,35.4,30.12,ESE,112,0.0,2.2,82,0.00,,,0.00,WUHU21623XXSP,2013-02-16 11:51:00,
2013-02-16 03:56:00,40.1,35.0,30.12,ESE,112,0.0,0.0,82,0.00,,,0.00,WUHU21623XXSP,2013-02-16 11:56:00,
2013-02-16 04:01:00,40.1,35.0,30.12,ESE,112,0.0,0.0,82,0.00,,,0.00,WUHU21623XXSP,2013-02-16 12:01:00,
2013-02-16 04:06:00,39.9,34.9,30.12,ESE,112,0.0,0.0,82,0.00,,,0.00,WUHU21623XXSP,2013-02-16 12:06:00,
2013-02-16 04:11:00,39.6,34.6,30.13,East,90,0.0,0.0,82,0.00,,,0.00,WUHU21623XXSP,2013-02-16 12:11:00,
2013-02-16 04:16:00,39.6,34.6,30.12,ESE,112,0.9,0.9,82,0.00,,,0.00,WUHU21623XXSP,2013-02-16 12:16:00,
2013-02-16 04:21:00,39.6,34.9,30.12,ESE,112,0.9,0.9,83,0.00,,,0.00,WUHU21623XXSP,2013-02-16 12:21:00,
2013-02-16 04:26:00,39.6,34.9,30.12,ESE,112,0.0,0.9,83,0.00,,,0.00,WUHU21623XXSP,2013-02-16 12:26:00,
2013-02-16 04:31:00,39.4,34.7,30.12,ESE,112,0.0,0.0,83,0.00,,,0.00,WUHU21623XXSP,2013-02-16 12:31:00,
2013-02-16 04:36:00,39.2,34.5,30.12,ESE,112,0.0,0.0,83,0.00,,,0.00,WUHU21623XXSP,2013-02-16 12:36:00,
2013-02-16 04:41:00,39.0,34.3,30.12,ESE,112,0.0,0.0,83,0.00,,,0.00,WUHU21623XXSP,2013-02-16 12:41:00,
2013-02-16 04:46:00,39.0,34.3,30.12,ESE,112,0.0,0.0,83,0.00,,,0.00,WUHU21623XXSP,2013-02-16 12:46:00,
2013-02-16 04:51:00,39.0,34.3,30.12,ESE,112,0.0,0.0,83,0.00,,,0.00,WUHU21623XXSP,2013-02-16 12:51:00,
2013-02-16 04:56:00,38.9,34.2,30.13,ESE,112,0.0,0.0,83,0.00,,,0.00,WUHU21623XXSP,2013-02-16 12:56:00,
2013-02-16 05:01:00,38.7,34.0,30.13,ESE,112,0.0,0.0,83,0.00,,,0.00,WUHU21623XXSP,2013-02-16 13:01:00,
2013-02-16 05:06:00,38.3,33.6,30.14,ESE,112,0.0,0.0,83,0.00,,,0.00,WUHU21623XXSP,2013-02-16 13:06:00,
2013-02-16 05:11:00,38.0,33.3,30.14,SSE,157,0.0,0.0,83,0.00,,,0.00,WUHU21623XXSP,2013-02-16 13:11:00,
2013-02-16 05:16:00,37.6,32.9,30.14,SSE,157,0.0,0.0,83,0.00,,,0.00,WUHU21623XXSP,2013-02-16 13:16:00,
2013-02-16 05:21:00,37.4,33.0,30.14,SSE,157,0.0,0.0,84,0.00,,,0.00,WUHU21623XXSP,2013-02-16 13:21:00,
2013-02-16 05:26:00,37.1,32.4,30.14,SSE,157,0.0,0.0,83,0.00,,,0.00,WUHU21623XXSP,2013-02-16 13:26:00,
2013-02-16 05:37:00,36.5,32.1,30.15,SSE,157,0.0,0.0,84,0.00,,,0.00,WUHU21623XXSP,2013-02-16 13:37:00,
2013-02-16 05:42:00,36.9,32.5,30.15,SSE,157,0.0,0.0,84,0.00,,,0.00,WUHU21623XXSP,2013-02-16 13:42:00,
2013-02-16 05:47:00,37.1,33.0,30.15,SSE,157,0.0,0.0,85,0.00,,,0.00,WUHU21623XXSP,2013-02-16 13:47:00,
2013-02-16 05:52:00,37.6,33.5,30.15,South,180,0.0,0.0,85,0.00,,,0.00,WUHU21623XXSP,2013-02-16 13:52:00,
2013-02-16 05:57:00,38.0,33.9,30.15,South,180,0.0,0.0,85,0.00,,,0.00,WUHU21623XXSP,2013-02-16 13:57:00,
2013-02-16 06:02:00,38.3,34.2,30.16,South,180,0.0,0.0,85,0.00,,,0.00,WUHU21623XXSP,2013-02-16 14:02:00,
2013-02-16 06:07:00,38.7,34.6,30.15,SSW,202,0.0,0.0,85,0.00,,,0.00,WUHU21623XXSP,2013-02-16 14:07:00,
2013-02-16 06:12:00,38.9,35.0,30.16,SSW,202,0.0,0.0,86,0.00,,,0.00,WUHU21623XXSP,2013-02-16 14:12:00,
2013-02-16 06:17:00,39.0,35.1,30.16,SSW,202,0.0,0.0,86,0.00,,,0.00,WUHU21623XXSP,2013-02-16 14:17:00,
2013-02-16 06:22:00,39.0,35.1,30.16,South,180,0.0,0.0,86,0.00,,,0.00,WUHU21623XXSP,2013-02-16 14:22:00,
2013-02-16 06:27:00,39.2,35.3,30.16,South,180,0.0,0.0,86,0.00,,,0.00,WUHU21623XXSP,2013-02-16 14:27:00,
2013-02-16 06:32:00,39.2,35.3,30.16,South,180,0.0,0.0,86,0.00,,,0.00,WUHU21623XXSP,2013-02-16 14:32:00,
2013-02-16 06:37:00,39.4,35.5,30.16,SSW,202,0.0,0.0,86,0.00,,,0.00,WUHU21623XXSP,2013-02-16 14:37:00,
2013-02-16 06:42:00,39.6,35.7,30.16,SSW,202,0.0,0.0,86,0.00,,,0.00,WUHU21623XXSP,2013-02-16 14:42:00,
2013-02-16 06:47:00,39.6,35.7,30.16,SSW,202,0.0,0.0,86,0.00,,,0.00,WUHU21623XXSP,2013-02-16 14:47:00,
2013-02-16 06:52:00,39.9,36.3,30.16,SW,225,0.0,4.5,87,0.00,,,0.00,WUHU21623XXSP,2013-02-16 14:52:00,
2013-02-16 06:57:00,39.9,36.3,30.16,SW,225,0.0,4.5,87,0.00,,,0.00,WUHU21623XXSP,2013-02-16 14:57:00,
2013-02-16 07:02:00,40.1,36.5,30.16,SW,225,2.7,2.7,87,0.00,,,0.00,WUHU21623XXSP,2013-02-16 15:02:00,
2013-02-16 07:07:00,40.1,36.5,30.16,SW,225,0.0,2.7,87,0.00,,,0.00,WUHU21623XXSP,2013-02-16 15:07:00,
2013-02-16 07:12:00,40.1,36.5,30.16,SW,225,0.0,0.0,87,0.00,,,0.00,WUHU21623XXSP,2013-02-16 15:12:00,
2013-02-16 07:17:00,40.1,36.5,30.16,SW,225,2.9,2.9,87,0.00,,,0.00,WUHU21623XXSP,2013-02-16 15:17:00,
2013-02-16 07:22:00,40.5,36.9,30.16,SSW,202,0.0,2.9,87,0.00,,,0.00,WUHU21623XXSP,2013-02-16 15:22:00,
2013-02-16 07:27:00,40.5,36.9,30.16,SSW,202,0.0,2.9,87,0.00,,,0.00,WUHU21623XXSP,2013-02-16 15:27:00,
2013-02-16 07:32:00,40.5,36.9,30.17,SW,225,0.0,0.0,87,0.00,,,0.00,WUHU21623XXSP,2013-02-16 15:32:00,
2013-02-16 07:37:00,40.5,37.2,30.17,SW,225,2.5,2.5,88,0.00,,,0.00,WUHU21623XXSP,2013-02-16 15:37:00,
2013-02-16 07:42:00,40.7,37.4,30.17,SSW,202,2.0,2.5,88,0.00,,,0.00,WUHU21623XXSP,2013-02-16 15:42:00,
2013-02-16 07:47:00,40.7,37.4,30.16,SSW,202,0.0,2.0,88,0.00,,,0.00,WUHU21623XXSP,2013-02-16 15:47:00,
2013-02-16 07:52:00,40.8,37.5,30.17,SSW,202,0.0,2.0,88,0.00,,,0.00,WUHU21623XXSP,2013-02-16 15:52:00,
2013-02-16 07:57:00,40.8,37.5,30.17,SSW,202,0.0,0.0,88,0.00,,,0.00,WUHU21623XXSP,2013-02-16 15:57:00,
2013-02-16 08:02:00,40.8,37.5,30.17,SSW,202,0.0,0.0,88,0.00,,,0.00,WUHU21623XXSP,2013-02-16 16:02:00,
2013-02-16 08:07:00,41.0,37.7,30.17,SSW,202,0.0,0.0,88,0.00,,,0.00,WUHU21623XXSP,2013-02-16 16:07:00,
2013-02-16 08:12:00,41.0,37.7,30.17,SW,225,0.0,0.0,88,0.00,,,0.00,WUHU21623XXSP,2013-02-16 16:12:00,
2013-02-16 08:17:00,41.0,37.7,30.17,SW,225,0.0,0.0,88,0.00,,,0.00,WUHU21623XXSP,2013-02-16 16:17:00,
2013-02-16 08:22:00,41.2,37.9,30.17,SSW,202,2.9,2.9,88,0.00,,,0.00,WUHU21623XXSP,2013-02-16 16:22:00,
2013-02-16 08:27:00,41.4,38.1,30.17,SW,225,1.8,2.9,88,0.00,,,0.00,WUHU21623XXSP,2013-02-16 16:27:00,
2013-02-16 08:32:00,41.4,38.1,30.16,SW,225,7.4,7.4,88,0.00,,,0.00,WUHU21623XXSP,2013-02-16 16:32:00,
2013-02-16 08:37:00,41.4,38.1,30.17,SW,225,2.9,7.4,88,0.00,,,0.00,WUHU21623XXSP,2013-02-16 16:37:00,
2013-02-16 08:42:00,41.6,38.3,30.17,SW,225,2.9,5.6,88,0.00,,,0.00,WUHU21623XXSP,2013-02-16 16:42:00,
2013-02-16 08:47:00,41.6,38.3,30.17,SW,225,2.9,2.9,88,0.00,,,0.00,WUHU21623XXSP,2013-02-16 16:47:00,
2013-02-16 08:52:00,41.7,38.4,30.17,West,270,1.6,2.9,88,0.00,,,0.00,WUHU21623XXSP,2013-02-16 16:52:00,
2013-02-16 08:57:00,41.7,38.4,30.17,SW,225,0.0,2.2,88,0.00,,,0.00,WUHU21623XXSP,2013-02-16 16:57:00,
2013-02-16 09:02:00,41.9,38.6,30.18,SW,225,0.0,1.3,88,0.00,,,0.00,WUHU21623XXSP,2013-02-16 17:02:00,
2013-02-16 09:07:00,41.9,38.6,30.17,SW,225,3.8,3.8,88,0.00,,,0.00,WUHU21623XXSP,2013-02-16 17:07:00,
2013-02-16 09:12:00,41.9,38.6,30.17,SW,225,0.0,3.8,88,0.00,,,0.00,WUHU21623XXSP,2013-02-16 17:12:00,
2013-02-16 09:17:00,41.9,38.6,30.17,SW,225,2.5,3.8,88,0.00,,,0.00,WUHU21623XXSP,2013-02-16 17:17:00,
2013-02-16 09:22:00,42.3,39.0,30.17,SSW,202,2.9,3.8,88,0.00,,,0.00,WUHU21623XXSP,2013-02-16 17:22:00,
2013-02-16 09:27:00,42.3,39.0,30.17,SW,225,1.6,3.8,88,0.00,,,0.00,WUHU21623XXSP,2013-02-16 17:27:00,
2013-02-16 09:32:00,42.5,39.2,30.17,SW,225,1.1,1.6,88,0.00,,,0.00,WUHU21623XXSP,2013-02-16 17:32:00,
2013-02-16 09:37:00,42.6,39.3,30.18,SSW,202,0.0,1.1,88,0.00,,,0.00,WUHU21623XXSP,2013-02-16 17:37:00,
2013-02-16 09:42:00,42.5,39.2,30.18,SSW,202,0.0,0.0,88,0.00,,,0.00,WUHU21623XXSP,2013-02-16 17:42:00,
2013-02-16 09:47:00,42.6,39.3,30.18,SSW,202,0.0,0.0,88,0.00,,,0.00,WUHU21623XXSP,2013-02-16 17:47:00,
2013-02-16 09:52:00,42.6,39.3,30.18,SW,225,0.0,0.0,88,0.00,,,0.00,WUHU21623XXSP,2013-02-16 17:52:00,
2013-02-16 09:57:00,42.6,39.3,30.18,SSW,202,1.8,1.8,88,0.00,,,0.00,WUHU21623XXSP,2013-02-16 17:57:00,
2013-02-16 10:02:00,42.6,39.5,30.18,SSW,202,0.0,2.5,89,0.02,,,0.00,WUHU21623XXSP,2013-02-16 18:02:00,
2013-02-16 10:07:00,42.6,39.3,30.17,SSW,202,0.0,2.5,88,0.02,,,0.02,WUHU21623XXSP,2013-02-16 18:07:00,
2013-02-16 10:12:00,42.8,39.7,30.18,SW,225,3.1,3.1,89,0.02,,,0.02,WUHU21623XXSP,2013-02-16 18:12:00,
2013-02-16 10:17:00,42.8,39.7,30.18,SW,225,2.0,3.1,89,0.02,,,0.02,WUHU21623XXSP,2013-02-16 18:17:00,
2013-02-16 10:22:00,42.8,39.7,30.19,SW,225,0.0,2.0,89,0.02,,,0.02,WUHU21623XXSP,2013-02-16 18:22:00,
2013-02-16 10:27:00,42.8,39.7,30.18,SSW,202,2.5,2.5,89,0.02,,,0.02,WUHU21623XXSP,2013-02-16 18:27:00,
2013-02-16 10:32:00,42.8,39.7,30.18,SW,225,4.9,4.9,89,0.02,,,0.02,WUHU21623XXSP,2013-02-16 18:32:00,
2013-02-16 10:37:00,42.8,39.7,30.18,SSW,202,0.0,4.9,89,0.04,,,0.02,WUHU21623XXSP,2013-02-16 18:37:00,
2013-02-16 10:42:00,42.8,39.7,30.18,SW,225,2.2,2.2,89,0.04,,,0.04,WUHU21623XXSP,2013-02-16 18:42:00,
2013-02-16 10:47:00,42.8,39.7,30.18,SSW,202,0.0,2.2,89,0.04,,,0.04,WUHU21623XXSP,2013-02-16 18:47:00,
2013-02-16 10:52:00,43.2,40.1,30.19,SW,225,4.3,4.3,89,0.04,,,0.04,WUHU21623XXSP,2013-02-16 18:52:00,
2013-02-16 10:57:00,43.2,40.1,30.18,SW,225,2.5,4.3,89,0.04,,,0.04,WUHU21623XXSP,2013-02-16 18:57:00,
2013-02-16 11:02:00,43.5,40.4,30.18,NW,315,2.5,2.5,89,0.02,,,0.04,WUHU21623XXSP,2013-02-16 19:02:00,
2013-02-16 11:07:00,43.7,40.6,30.18,West,270,0.7,2.5,89,0.02,,,0.04,WUHU21623XXSP,2013-02-16 19:07:00,
2013-02-16 11:12:00,44.1,41.0,30.17,SW,225,3.1,3.1,89,0.02,,,0.04,WUHU21623XXSP,2013-02-16 19:12:00,
2013-02-16 11:17:00,44.3,41.2,30.17,SW,225,2.7,3.1,89,0.02,,,0.04,WUHU21623XXSP,2013-02-16 19:17:00,
2013-02-16 11:22:00,44.4,41.3,30.17,SW,225,2.7,2.7,89,0.02,,,0.04,WUHU21623XXSP,2013-02-16 19:22:00,
2013-02-16 11:27:00,44.4,41.3,30.18,SW,225,2.7,2.7,89,0.02,,,0.04,WUHU21623XXSP,2013-02-16 19:27:00,
2013-02-16 11:32:00,44.4,41.3,30.17,WSW,247,0.0,2.7,89,0.02,,,0.04,WUHU21623XXSP,2013-02-16 19:32:00,
2013-02-16 11:37:00,44.4,41.3,30.18,WSW,247,0.0,0.0,89,0.00,,,0.04,WUHU21623XXSP,2013-02-16 19:37:00,
2013-02-16 11:42:00,44.4,41.3,30.17,SW,225,3.8,3.8,89,0.00,,,0.04,WUHU21623XXSP,2013-02-16 19:42:00,
2013-02-16 11:47:00,44.3,41.2,30.18,WSW,247,4.5,4.5,89,0.00,,,0.04,WUHU21623XXSP,2013-02-16 19:47:00,
2013-02-16 11:52:00,44.3,41.2,30.17,SW,225,1.8,5.4,89,0.00,,,0.04,WUHU21623XXSP,2013-02-16 19:52:00,
2013-02-16 11:57:00,44.1,41.0,30.17,SW,225,0.0,5.4,89,0.00,,,0.04,WUHU21623XXSP,2013-02-16 19:57:00,
2013-02-16 12:02:00,44.1,41.0,30.16,WSW,247,4.0,5.1,89,0.00,,,0.04,WUHU21623XXSP,2013-02-16 20:02:00,
2013-02-16 12:07:00,44.1,41.0,30.16,SW,225,0.0,7.4,89,0.00,,,0.04,WUHU21623XXSP,2013-02-16 20:07:00,
2013-02-16 12:12:00,44.3,41.2,30.16,WSW,247,0.0,7.4,89,0.00,,,0.04,WUHU21623XXSP,2013-02-16 20:12:00,
2013-02-16 12:17:00,44.4,41.3,30.17,SW,225,0.0,0.0,89,0.00,,,0.04,WUHU21623XXSP,2013-02-16 20:17:00,
2013-02-16 12:22:00,44.4,41.3,30.17,SSW,202,0.0,0.0,89,0.00,,,0.04,WUHU21623XXSP,2013-02-16 20:22:00,
2013-02-16 12:27:00,44.4,41.3,30.17,SSW,202,2.5,3.1,89,0.02,,,0.04,WUHU21623XXSP,2013-02-16 20:27:00,
2013-02-16 12:33:00,44.3,41.2,30.16,SW,225,0.0,3.1,89,0.02,,,0.06,WUHU21623XXSP,2013-02-16 20:33:00,
2013-02-16 12:38:00,44.3,41.2,30.16,WSW,247,6.0,6.0,89,0.02,,,0.06,WUHU21623XXSP,2013-02-16 20:38:00,
2013-02-16 12:43:00,44.3,41.2,30.16,WSW,247,6.0,6.0,89,0.02,,,0.06,WUHU21623XXSP,2013-02-16 20:43:00,
2013-02-16 12:48:00,44.3,41.2,30.16,SW,225,0.0,6.0,89,0.02,,,0.06,WUHU21623XXSP,2013-02-16 20:48:00,
2013-02-16 12:53:00,44.6,41.5,30.16,SW,225,7.8,7.8,89,0.02,,,0.06,WUHU21623XXSP,2013-02-16 20:53:00,
2013-02-16 12:58:00,44.8,41.7,30.16,SW,225,0.0,7.8,89,0.02,,,0.06,WUHU21623XXSP,2013-02-16 20:58:00,
2013-02-16 13:03:00,45.0,41.9,30.16,West,270,3.8,7.8,89,0.02,,,0.06,WUHU21623XXSP,2013-02-16 21:03:00,
2013-02-16 13:08:00,45.2,42.1,30.15,SW,225,7.4,7.4,89,0.02,,,0.06,WUHU21623XXSP,2013-02-16 21:08:00,
2013-02-16 13:13:00,45.2,42.1,30.15,WSW,247,1.8,7.4,89,0.02,,,0.06,WUHU21623XXSP,2013-02-16 21:13:00,
2013-02-16 13:18:00,45.5,42.4,30.15,SW,225,5.4,5.4,89,0.02,,,0.06,WUHU21623XXSP,2013-02-16 21:18:00,
2013-02-16 13:23:00,45.7,42.6,30.15,WSW,247,3.4,5.4,89,0.02,,,0.06,WUHU21623XXSP,2013-02-16 21:23:00,
2013-02-16 13:28:00,46.2,42.8,30.15,SSW,202,3.1,3.4,88,0.00,,,0.06,WUHU21623XXSP,2013-02-16 21:28:00,
2013-02-16 13:33:00,46.4,43.0,30.14,WSW,247,6.3,6.3,88,0.00,,,0.06,WUHU21623XXSP,2013-02-16 21:33:00,
2013-02-16 13:38:00,46.8,43.4,30.14,SW,225,1.8,6.3,88,0.00,,,0.06,WUHU21623XXSP,2013-02-16 21:38:00,
2013-02-16 13:43:00,47.1,43.7,30.14,SSW,202,5.6,6.0,88,0.00,,,0.06,WUHU21623XXSP,2013-02-16 21:43:00,
2013-02-16 13:48:00,47.7,44.3,30.14,SW,225,3.1,6.0,88,0.00,,,0.06,WUHU21623XXSP,2013-02-16 21:48:00,
2013-02-16 13:53:00,48.6,44.9,30.14,WSW,247,5.6,8.9,87,0.00,,,0.06,WUHU21623XXSP,2013-02-16 21:53:00,
2013-02-16 13:58:00,49.1,45.1,30.14,SSW,202,5.1,8.9,86,0.00,,,0.06,WUHU21623XXSP,2013-02-16 21:58:00,
2013-02-16 14:03:00,49.8,45.5,30.14,SW,225,3.4,5.6,85,0.00,,,0.06,WUHU21623XXSP,2013-02-16 22:03:00,
2013-02-16 14:08:00,49.7,45.1,30.14,WSW,247,3.4,4.7,84,0.00,,,0.06,WUHU21623XXSP,2013-02-16 22:08:00,
2013-02-16 14:13:00,49.3,44.7,30.13,SSW,202,2.2,3.4,84,0.00,,,0.06,WUHU21623XXSP,2013-02-16 22:13:00,
2013-02-16 14:18:00,49.3,44.7,30.13,SSW,202,2.2,3.4,84,0.00,,,0.06,WUHU21623XXSP,2013-02-16 22:18:00,
2013-02-16 14:23:00,49.7,45.1,30.13,West,270,1.6,2.2,84,0.00,,,0.06,WUHU21623XXSP,2013-02-16 22:23:00,
2013-02-16 14:28:00,50.2,45.2,30.13,SW,225,2.5,2.5,83,0.00,,,0.06,WUHU21623XXSP,2013-02-16 22:28:00,
2013-02-16 14:33:00,50.2,45.2,30.13,SSW,202,0.0,2.5,83,0.00,,,0.06,WUHU21623XXSP,2013-02-16 22:33:00,
2013-02-16 14:38:00,49.8,44.5,30.13,SSW,202,3.4,4.7,82,0.00,,,0.06,WUHU21623XXSP,2013-02-16 22:38:00,
2013-02-16 14:43:00,48.9,43.3,30.14,WSW,247,7.8,7.8,81,0.00,,,0.06,WUHU21623XXSP,2013-02-16 22:43:00,
2013-02-16 14:48:00,48.2,43.0,30.14,WSW,247,6.3,7.8,82,0.00,,,0.06,WUHU21623XXSP,2013-02-16 22:48:00,
2013-02-16 14:53:00,47.7,42.5,30.13,SW,225,0.0,6.3,82,0.00,,,0.06,WUHU21623XXSP,2013-02-16 22:53:00,
2013-02-16 14:58:00,47.1,41.9,30.13,South,180,4.9,4.9,82,0.00,,,0.06,WUHU21623XXSP,2013-02-16 22:58:00,
2013-02-16 15:03:00,46.4,41.2,30.14,WSW,247,2.9,4.9,82,0.00,,,0.06,WUHU21623XXSP,2013-02-16 23:03:00,
2013-02-16 15:08:00,46.1,40.9,30.13,WSW,247,2.2,3.1,82,0.00,,,0.06,WUHU21623XXSP,2013-02-16 23:08:00,
2013-02-16 15:13:00,45.7,40.8,30.14,WSW,247,4.9,6.9,83,0.00,,,0.06,WUHU21623XXSP,2013-02-16 23:13:00,
2013-02-16 15:18:00,46.1,41.5,30.13,WSW,247,4.7,6.9,84,0.00,,,0.06,WUHU21623XXSP,2013-02-16 23:18:00,
2013-02-16 15:23:00,46.4,41.8,30.13,WSW,247,0.0,4.7,84,0.00,,,0.06,WUHU21623XXSP,2013-02-16 23:23:00,
2013-02-16 15:28:00,47.1,42.5,30.14,SE,135,3.8,4.0,84,0.00,,,0.06,WUHU21623XXSP,2013-02-16 23:28:00,
2013-02-16 15:33:00,47.1,42.5,30.14,SE,135,3.8,4.0,84,0.00,,,0.06,WUHU21623XXSP,2013-02-16 23:33:00,
2013-02-16 15:38:00,47.3,42.7,30.14,SSW,202,0.0,3.8,84,0.00,,,0.06,WUHU21623XXSP,2013-02-16 23:38:00,
2013-02-16 15:43:00,48.2,43.6,30.14,South,180,4.3,4.3,84,0.00,,,0.06,WUHU21623XXSP,2013-02-16 23:43:00,
2013-02-16 15:48:00,48.6,44.0,30.14,SW,225,2.7,4.3,84,0.00,,,0.06,WUHU21623XXSP,2013-02-16 23:48:00,
2013-02-16 15:53:00,49.1,44.5,30.14,SW,225,7.8,7.8,84,0.00,,,0.06,WUHU21623XXSP,2013-02-16 23:53:00,
2013-02-16 15:58:00,49.5,44.6,30.14,SW,225,7.6,7.8,83,0.00,,,0.06,WUHU21623XXSP,2013-02-16 23:58:00,
2013-02-16 16:03:00,49.7,44.4,30.14,WSW,247,0.0,7.6,82,0.00,,,0.06,WUHU21623XXSP,2013-02-17 00:03:00,
2013-02-16 16:08:00,49.7,44.4,30.14,WSW,247,0.0,7.6,82,0.00,,,0.06,WUHU21623XXSP,2013-02-17 00:08:00,
2013-02-16 16:13:00,49.8,44.2,30.14,West,270,2.5,2.7,81,0.00,,,0.06,WUHU21623XXSP,2013-02-17 00:13:00,
2013-02-16 16:18:00,49.8,44.2,30.14,SW,225,8.3,8.3,81,0.00,,,0.06,WUHU21623XXSP,2013-02-17 00:18:00,
2013-02-16 16:23:00,49.8,44.2,30.14,WSW,247,3.6,8.3,81,0.00,,,0.06,WUHU21623XXSP,2013-02-17 00:23:00,
2013-02-16 16:28:00,50.0,44.1,30.14,NNW,337,5.1,5.6,80,0.00,,,0.06,WUHU21623XXSP,2013-02-17 00:28:00,
2013-02-16 16:33:00,50.0,43.8,30.14,SW,225,2.9,5.6,79,0.00,,,0.06,WUHU21623XXSP,2013-02-17 00:33:00,
2013-02-16 16:39:00,49.7,43.5,30.14,WSW,247,0.0,2.9,79,0.00,,,0.06,WUHU21623XXSP,2013-02-17 00:39:00,
2013-02-16 16:44:00,49.1,42.9,30.14,WNW,292,0.0,0.0,79,0.00,,,0.06,WUHU21623XXSP,2013-02-17 00:44:00,
2013-02-16 16:51:00,48.6,42.7,30.14,NW,315,2.7,2.7,80,0.00,,,0.06,WUHU21623XXSP,2013-02-17 00:51:00,
2013-02-16 16:56:00,48.0,42.2,30.14,NW,315,0.0,2.7,80,0.00,,,0.06,WUHU21623XXSP,2013-02-17 00:56:00,
2013-02-16 17:01:00,47.7,41.9,30.14,NNW,337,0.0,3.1,80,0.00,,,0.06,WUHU21623XXSP,2013-02-17 01:01:00,
2013-02-16 17:06:00,47.3,41.5,30.14,NW,315,0.0,3.1,80,0.00,,,0.06,WUHU21623XXSP,2013-02-17 01:06:00,
2013-02-16 17:11:00,47.1,41.6,30.14,NW,315,0.0,0.0,81,0.00,,,0.06,WUHU21623XXSP,2013-02-17 01:11:00,
2013-02-16 17:16:00,46.8,41.0,30.14,NNW,337,0.0,0.0,80,0.00,,,0.06,WUHU21623XXSP,2013-02-17 01:16:00,
2013-02-16 17:21:00,46.2,40.7,30.14,NNW,337,0.0,0.0,81,0.02,,,0.09,WUHU21623XXSP,2013-02-17 01:21:00,
2013-02-16 17:26:00,45.9,40.7,30.14,NW,315,0.0,0.0,82,0.02,,,0.09,WUHU21623XXSP,2013-02-17 01:26:00,
2013-02-16 17:31:00,45.5,40.3,30.13,NW,315,0.0,0.0,82,0.02,,,0.09,WUHU21623XXSP,2013-02-17 01:31:00,
2013-02-16 17:36:00,45.3,40.4,30.14,NW,315,0.0,0.0,83,0.02,,,0.09,WUHU21623XXSP,2013-02-17 01:36:00,
2013-02-16 17:41:00,45.0,40.1,30.14,NW,315,0.0,0.0,83,0.02,,,0.09,WUHU21623XXSP,2013-02-17 01:41:00,
2013-02-16 17:46:00,44.8,40.0,30.13,NW,315,0.0,0.0,83,0.02,,,0.09,WUHU21623XXSP,2013-02-17 01:46:00,
2013-02-16 17:51:00,44.6,40.1,30.14,NW,315,0.0,0.0,84,0.02,,,0.09,WUHU21623XXSP,2013-02-17 01:51:00,
2013-02-16 17:56:00,44.4,39.9,30.14,NNW,337,0.0,0.0,84,0.02,,,0.09,WUHU21623XXSP,2013-02-17 01:56:00,
2013-02-16 18:01:00,44.1,39.6,30.14,NW,315,0.0,4.0,84,0.02,,,0.09,WUHU21623XXSP,2013-02-17 02:01:00,
2013-02-16 18:06:00,44.1,39.6,30.14,NW,315,0.0,4.0,84,0.02,,,0.09,WUHU21623XXSP,2013-02-17 02:06:00,
2013-02-16 18:11:00,43.7,39.2,30.14,NW,315,0.0,0.0,84,0.02,,,0.09,WUHU21623XXSP,2013-02-17 02:11:00,
2013-02-16 18:16:00,43.7,39.2,30.14,NNW,337,0.0,0.9,84,0.02,,,0.09,WUHU21623XXSP,2013-02-17 02:16:00,
2013-02-16 18:21:00,43.5,39.3,30.14,NNW,337,0.0,0.9,85,0.00,,,0.09,WUHU21623XXSP,2013-02-17 02:21:00,
2013-02-16 18:26:00,43.2,39.0,30.14,NW,315,0.0,0.0,85,0.00,,,0.09,WUHU21623XXSP,2013-02-17 02:26:00,
2013-02-16 18:31:00,43.2,39.0,30.14,NNW,337,0.0,0.0,85,0.00,,,0.09,WUHU21623XXSP,2013-02-17 02:31:00,
2013-02-16 18:36:00,43.2,39.0,30.14,NNW,337,0.0,0.0,85,0.00,,,0.09,WUHU21623XXSP,2013-02-17 02:36:00,
2013-02-16 18:41:00,43.0,38.8,30.14,NNW,337,0.0,0.0,85,0.00,,,0.09,WUHU21623XXSP,2013-02-17 02:41:00,
2013-02-16 18:46:00,43.0,39.1,30.15,NW,315,0.0,0.0,86,0.00,,,0.09,WUHU21623XXSP,2013-02-17 02:46:00,
2013-02-16 18:51:00,42.8,38.9,30.15,NW,315,0.0,0.0,86,0.00,,,0.09,WUHU21623XXSP,2013-02-17 02:51:00,
2013-02-16 18:56:00,42.8,38.9,30.15,NW,315,0.0,0.0,86,0.00,,,0.09,WUHU21623XXSP,2013-02-17 02:56:00,
2013-02-16 19:01:00,42.6,38.7,30.15,NW,315,0.0,0.0,86,0.00,,,0.09,WUHU21623XXSP,2013-02-17 03:01:00,
2013-02-16 19:06:00,42.6,38.7,30.15,NW,315,0.0,0.0,86,0.00,,,0.09,WUHU21623XXSP,2013-02-17 03:06:00,
2013-02-16 19:11:00,42.6,38.7,30.16,WSW,247,0.0,0.0,86,0.00,,,0.09,WUHU21623XXSP,2013-02-17 03:11:00,
2013-02-16 19:16:00,42.5,38.6,30.16,WSW,247,0.0,0.0,86,0.00,,,0.09,WUHU21623XXSP,2013-02-17 03:16:00,
2013-02-16 19:21:00,42.3,38.4,30.16,WSW,247,0.0,0.0,86,0.00,,,0.09,WUHU21623XXSP,2013-02-17 03:21:00,
2013-02-16 19:26:00,42.3,38.4,30.16,WSW,247,0.0,0.0,86,0.00,,,0.09,WUHU21623XXSP,2013-02-17 03:26:00,
2013-02-16 19:31:00,42.1,38.2,30.16,WSW,247,0.0,0.0,86,0.00,,,0.09,WUHU21623XXSP,2013-02-17 03:31:00,
2013-02-16 19:36:00,41.9,38.0,30.16,WSW,247,0.0,0.0,86,0.00,,,0.09,WUHU21623XXSP,2013-02-17 03:36:00,
2013-02-16 19:41:00,41.9,38.0,30.16,SW,225,0.0,0.0,86,0.00,,,0.09,WUHU21623XXSP,2013-02-17 03:41:00,
2013-02-16 19:46:00,41.9,38.0,30.16,SW,225,0.0,0.0,86,0.00,,,0.09,WUHU21623XXSP,2013-02-17 03:46:00,
2013-02-16 19:51:00,41.9,38.0,30.16,SW,225,0.0,0.0,86,0.00,,,0.09,WUHU21623XXSP,2013-02-17 03:51:00,
2013-02-16 19:56:00,41.7,37.8,30.17,SW,225,0.0,0.0,86,0.00,,,0.09,WUHU21623XXSP,2013-02-17 03:56:00,
2013-02-16 20:01:00,41.7,37.8,30.17,West,270,0.0,0.0,86,0.00,,,0.09,WUHU21623XXSP,2013-02-17 04:01:00,
2013-02-16 20:06:00,41.7,37.8,30.17,WSW,247,0.0,0.0,86,0.00,,,0.09,WUHU21623XXSP,2013-02-17 04:06:00,
2013-02-16 20:11:00,41.6,38.0,30.17,West,270,0.0,0.0,87,0.00,,,0.09,WUHU21623XXSP,2013-02-17 04:11:00,
2013-02-16 20:16:00,41.6,38.0,30.17,West,270,0.0,0.0,87,0.00,,,0.09,WUHU21623XXSP,2013-02-17 04:16:00,
2013-02-16 20:21:00,41.4,37.8,30.18,West,270,0.0,0.0,87,0.00,,,0.09,WUHU21623XXSP,2013-02-17 04:21:00,
2013-02-16 20:26:00,41.4,37.8,30.17,West,270,0.0,0.0,87,0.00,,,0.09,WUHU21623XXSP,2013-02-17 04:26:00,
2013-02-16 20:31:00,41.4,37.8,30.17,West,270,0.0,0.0,87,0.00,,,0.09,WUHU21623XXSP,2013-02-17 04:31:00,
2013-02-16 20:36:00,41.4,37.8,30.18,West,270,0.0,0.0,87,0.00,,,0.09,WUHU21623XXSP,2013-02-17 04:36:00,
2013-02-16 20:41:00,41.2,37.6,30.17,West,270,0.0,0.0,87,0.00,,,0.09,WUHU21623XXSP,2013-02-17 04:41:00,
2013-02-16 20:46:00,41.0,37.4,30.17,West,270,0.0,0.0,87,0.00,,,0.09,WUHU21623XXSP,2013-02-17 04:46:00,
2013-02-16 20:51:00,41.0,37.4,30.17,West,270,0.0,0.0,87,0.00,,,0.09,WUHU21623XXSP,2013-02-17 04:51:00,
2013-02-16 20:56:00,41.0,37.4,30.18,West,270,0.0,0.0,87,0.00,,,0.09,WUHU21623XXSP,2013-02-17 04:56:00,
2013-02-16 21:00:00,41.0,37.4,30.17,West,270,0.0,0.0,87,0.00,,,0.09,WUHU21623XXSP,2013-02-17 05:00:00,
2013-02-16 21:05:00,41.0,37.4,30.18,NW,315,0.0,0.0,87,0.00,,,0.09,WUHU21623XXSP,2013-02-17 05:05:00,
2013-02-16 21:10:00,40.8,37.2,30.18,NW,315,0.0,0.0,87,0.00,,,0.09,WUHU21623XXSP,2013-02-17 05:10:00,
2013-02-16 21:15:00,40.8,37.2,30.18,NW,315,0.0,0.0,87,0.00,,,0.09,WUHU21623XXSP,2013-02-17 05:15:00,
2013-02-16 21:20:00,40.7,37.1,30.18,NW,315,0.0,2.9,87,0.00,,,0.09,WUHU21623XXSP,2013-02-17 05:20:00,
2013-02-16 21:25:00,40.5,36.9,30.17,NW,315,0.0,2.9,87,0.00,,,0.09,WUHU21623XXSP,2013-02-17 05:25:00,
2013-02-16 21:30:00,40.5,36.9,30.17,NW,315,0.0,0.0,87,0.00,,,0.09,WUHU21623XXSP,2013-02-17 05:30:00,
2013-02-16 21:35:00,40.1,36.5,30.17,NW,315,0.0,0.0,87,0.00,,,0.09,WUHU21623XXSP,2013-02-17 05:35:00,
2013-02-16 21:40:00,39.6,35.7,30.18,NW,315,0.0,0.0,86,0.00,,,0.09,WUHU21623XXSP,2013-02-17 05:40:00,
2013-02-16 21:45:00,39.4,35.8,30.17,NW,315,0.0,0.0,87,0.00,,,0.09,WUHU21623XXSP,2013-02-17 05:45:00,
2013-02-16 21:50:00,39.0,35.4,30.17,NW,315,0.0,0.0,87,0.00,,,0.09,WUHU21623XXSP,2013-02-17 05:50:00,
2013-02-16 21:55:00,38.9,35.3,30.17,NW,315,0.0,0.0,87,0.00,,,0.09,WUHU21623XXSP,2013-02-17 05:55:00,
2013-02-16 22:00:00,38.9,35.3,30.18,NW,315,0.0,0.0,87,0.00,,,0.09,WUHU21623XXSP,2013-02-17 06:00:00,
2013-02-16 22:05:00,38.9,35.3,30.18,NW,315,0.0,0.0,87,0.00,,,0.09,WUHU21623XXSP,2013-02-17 06:05:00,
2013-02-16 22:10:00,38.9,35.3,30.17,NW,315,0.0,0.0,87,0.02,,,0.09,WUHU21623XXSP,2013-02-17 06:10:00,
2013-02-16 22:15:00,39.0,35.4,30.17,NW,315,0.0,0.0,87,0.02,,,0.11,WUHU21623XXSP,2013-02-17 06:15:00,
2013-02-16 22:20:00,39.0,35.4,30.18,NW,315,0.0,0.0,87,0.02,,,0.11,WUHU21623XXSP,2013-02-17 06:20:00,
2013-02-16 22:25:00,39.0,35.4,30.18,NW,315,0.0,0.0,87,0.02,,,0.11,WUHU21623XXSP,2013-02-17 06:25:00,
2013-02-16 22:30:00,39.0,35.4,30.18,NW,315,0.0,0.0,87,0.02,,,0.11,WUHU21623XXSP,2013-02-17 06:30:00,
2013-02-16 22:35:00,39.0,35.4,30.18,NW,315,0.0,0.0,87,0.02,,,0.11,WUHU21623XXSP,2013-02-17 06:35:00,
2013-02-16 22:40:00,39.0,35.4,30.18,NW,315,0.0,0.0,87,0.02,,,0.11,WUHU21623XXSP,2013-02-17 06:40:00,
2013-02-16 22:45:00,39.0,35.4,30.18,WNW,292,0.0,0.0,87,0.02,,,0.11,WUHU21623XXSP,2013-02-17 06:45:00,
2013-02-16 22:50:00,39.0,35.4,30.18,WNW,292,0.0,0.0,87,0.02,,,0.11,WUHU21623XXSP,2013-02-17 06:50:00,
2013-02-16 22:55:00,39.0,35.4,30.18,WNW,292,0.0,0.0,87,0.02,,,0.11,WUHU21623XXSP,2013-02-17 06:55:00,
2013-02-16 23:00:00,39.0,35.4,30.19,WNW,292,0.0,0.0,87,0.02,,,0.11,WUHU21623XXSP,2013-02-17 07:00:00,
2013-02-16 23:05:00,39.0,35.4,30.18,NNW,337,0.9,1.8,87,0.02,,,0.11,WUHU21623XXSP,2013-02-17 07:05:00,
2013-02-16 23:10:00,39.0,35.4,30.19,NNW,337,0.0,1.8,87,0.00,,,0.11,WUHU21623XXSP,2013-02-17 07:10:00,
2013-02-16 23:15:00,39.0,35.4,30.18,SW,225,0.0,2.5,87,0.00,,,0.11,WUHU21623XXSP,2013-02-17 07:15:00,
2013-02-16 23:20:00,38.9,35.3,30.18,West,270,0.7,2.5,87,0.00,,,0.11,WUHU21623XXSP,2013-02-17 07:20:00,
2013-02-16 23:25:00,38.7,35.1,30.18,NW,315,0.0,0.7,87,0.00,,,0.11,WUHU21623XXSP,2013-02-17 07:25:00,
2013-02-16 23:30:00,38.5,34.9,30.19,NW,315,0.0,0.7,87,0.00,,,0.11,WUHU21623XXSP,2013-02-17 07:30:00,
2013-02-16 23:35:00,38.3,35.0,30.19,NW,315,0.0,0.0,88,0.02,,,0.11,WUHU21623XXSP,2013-02-17 07:35:00,
2013-02-16 23:40:00,38.3,35.0,30.18,NW,315,0.0,0.0,88,0.02,,,0.13,WUHU21623XXSP,2013-02-17 07:40:00,
2013-02-16 23:45:00,38.3,35.0,30.18,NW,315,0.0,0.0,88,0.02,,,0.13,WUHU21623XXSP,2013-02-17 07:45:00,
2013-02-16 23:50:00,38.1,34.8,30.18,NW,315,0.0,0.0,88,0.02,,,0.13,WUHU21623XXSP,2013-02-17 07:50:00,
2013-02-16 23:55:00,38.1,34.8,30.18,NW,315,0.0,0.0,88,0.02,,,0.13,WUHU21623XXSP,2013-02-17 07:55:00,